sensor_id;sensor_type;location;lat;lon;timestamp;P1;durP1;ratioP1;P2;durP2;ratioP2
70467;SDS011;57934;51.532;7.684;2023-04-01T00:00:52;2.88;;;0.70;;
70467;SDS011;57934;51.532;7.684;2023-04-01T00:03:20;2.55;;;0.90;;
70467;SDS011;57934;51.532;7.684;2023-04-01T00:05:48;4.70;;;1.00;;
70467;SDS011;57934;51.532;7.684;2023-04-01T00:08:15;3.35;;;0.90;;
70467;SDS011;57934;51.532;7.684;2023-04-01T00:10:42;3.42;;;1.00;;
70467;SDS011;57934;51.532;7.684;2023-04-01T00:13:08;2.13;;;0.60;;
70467;SDS011;57934;51.532;7.684;2023-04-01T00:15:34;2.83;;;0.82;;
70467;SDS011;57934;51.532;7.684;2023-04-01T00:18:01;3.17;;;1.15;;
70467;SDS011;57934;51.532;7.684;2023-04-01T00:20:27;2.00;;;0.70;;
70467;SDS011;57934;51.532;7.684;2023-04-01T00:22:54;2.72;;;0.80;;
70467;SDS011;57934;51.532;7.684;2023-04-01T00:25:20;2.80;;;0.88;;
70467;SDS011;57934;51.532;7.684;2023-04-01T00:27:46;2.80;;;0.90;;
70467;SDS011;57934;51.532;7.684;2023-04-01T00:30:14;4.88;;;1.10;;
70467;SDS011;57934;51.532;7.684;2023-04-01T00:32:40;1.13;;;0.80;;
70467;SDS011;57934;51.532;7.684;2023-04-01T00:35:06;5.47;;;1.33;;
70467;SDS011;57934;51.532;7.684;2023-04-01T00:37:34;4.25;;;0.95;;
70467;SDS011;57934;51.532;7.684;2023-04-01T00:40:03;3.55;;;0.75;;
70467;SDS011;57934;51.532;7.684;2023-04-01T00:42:31;2.88;;;0.82;;
70467;SDS011;57934;51.532;7.684;2023-04-01T00:44:57;3.85;;;0.95;;
70467;SDS011;57934;51.532;7.684;2023-04-01T00:47:23;4.47;;;0.88;;
70467;SDS011;57934;51.532;7.684;2023-04-01T00:49:52;3.30;;;1.23;;
70467;SDS011;57934;51.532;7.684;2023-04-01T00:52:21;2.33;;;1.00;;
70467;SDS011;57934;51.532;7.684;2023-04-01T00:54:53;2.60;;;0.90;;
70467;SDS011;57934;51.532;7.684;2023-04-01T00:57:25;3.58;;;0.98;;
70467;SDS011;57934;51.532;7.684;2023-04-01T00:59:56;3.40;;;0.90;;
70467;SDS011;57934;51.532;7.684;2023-04-01T01:02:23;3.30;;;0.80;;
70467;SDS011;57934;51.532;7.684;2023-04-01T01:04:50;2.30;;;0.80;;
70467;SDS011;57934;51.532;7.684;2023-04-01T01:15:30;1.98;;;1.13;;
70467;SDS011;57934;51.532;7.684;2023-04-01T01:26:42;2.45;;;0.90;;
70467;SDS011;57934;51.532;7.684;2023-04-01T01:36:53;4.25;;;0.90;;
70467;SDS011;57934;51.532;7.684;2023-04-01T01:39:25;1.60;;;1.07;;
70467;SDS011;57934;51.532;7.684;2023-04-01T01:41:58;3.97;;;1.00;;
70467;SDS011;57934;51.532;7.684;2023-04-01T01:44:30;2.20;;;0.90;;
70467;SDS011;57934;51.532;7.684;2023-04-01T01:46:59;3.33;;;1.10;;
70467;SDS011;57934;51.532;7.684;2023-04-01T01:49:27;2.63;;;1.05;;
70467;SDS011;57934;51.532;7.684;2023-04-01T01:51:57;1.98;;;1.00;;
70467;SDS011;57934;51.532;7.684;2023-04-01T01:54:23;3.45;;;0.98;;
70467;SDS011;57934;51.532;7.684;2023-04-01T01:56:51;7.43;;;1.13;;
70467;SDS011;57934;51.532;7.684;2023-04-01T01:59:23;1.92;;;0.98;;
70467;SDS011;57934;51.532;7.684;2023-04-01T02:01:53;1.45;;;0.80;;
70467;SDS011;57934;51.532;7.684;2023-04-01T02:04:22;3.53;;;0.90;;
70467;SDS011;57934;51.532;7.684;2023-04-01T02:06:57;2.70;;;0.80;;
70467;SDS011;57934;51.532;7.684;2023-04-01T02:09:28;2.92;;;1.20;;
70467;SDS011;57934;51.532;7.684;2023-04-01T02:11:56;1.55;;;0.80;;
70467;SDS011;57934;51.532;7.684;2023-04-01T02:14:27;2.85;;;0.98;;
70467;SDS011;57934;51.532;7.684;2023-04-01T02:16:58;0.88;;;0.70;;
70467;SDS011;57934;51.532;7.684;2023-04-01T02:19:38;3.92;;;0.90;;
70467;SDS011;57934;51.532;7.684;2023-04-01T02:22:08;2.17;;;0.80;;
70467;SDS011;57934;51.532;7.684;2023-04-01T02:24:39;2.92;;;1.08;;
70467;SDS011;57934;51.532;7.684;2023-04-01T02:27:07;2.15;;;0.80;;
70467;SDS011;57934;51.532;7.684;2023-04-01T02:29:36;2.75;;;0.80;;
70467;SDS011;57934;51.532;7.684;2023-04-01T02:32:06;2.05;;;0.80;;
70467;SDS011;57934;51.532;7.684;2023-04-01T02:34:34;2.15;;;0.90;;
70467;SDS011;57934;51.532;7.684;2023-04-01T02:37:01;1.65;;;0.80;;
70467;SDS011;57934;51.532;7.684;2023-04-01T02:39:27;1.42;;;0.70;;
70467;SDS011;57934;51.532;7.684;2023-04-01T02:41:53;2.60;;;0.85;;
70467;SDS011;57934;51.532;7.684;2023-04-01T02:44:19;1.25;;;0.80;;
70467;SDS011;57934;51.532;7.684;2023-04-01T02:46:46;3.55;;;0.80;;
70467;SDS011;57934;51.532;7.684;2023-04-01T02:49:12;1.60;;;1.40;;
70467;SDS011;57934;51.532;7.684;2023-04-01T02:51:38;0.88;;;0.77;;
70467;SDS011;57934;51.532;7.684;2023-04-01T02:54:05;2.25;;;0.63;;
70467;SDS011;57934;51.532;7.684;2023-04-01T02:56:31;1.77;;;0.55;;
70467;SDS011;57934;51.532;7.684;2023-04-01T02:58:57;0.68;;;0.60;;
70467;SDS011;57934;51.532;7.684;2023-04-01T03:01:24;2.58;;;0.82;;
70467;SDS011;57934;51.532;7.684;2023-04-01T03:03:50;0.75;;;0.52;;
70467;SDS011;57934;51.532;7.684;2023-04-01T03:06:16;0.88;;;0.45;;
70467;SDS011;57934;51.532;7.684;2023-04-01T03:08:44;0.60;;;0.50;;
70467;SDS011;57934;51.532;7.684;2023-04-01T03:11:11;1.85;;;0.70;;
70467;SDS011;57934;51.532;7.684;2023-04-01T03:13:38;1.13;;;0.60;;
70467;SDS011;57934;51.532;7.684;2023-04-01T03:16:04;2.75;;;0.65;;
70467;SDS011;57934;51.532;7.684;2023-04-01T03:18:31;0.73;;;0.40;;
70467;SDS011;57934;51.532;7.684;2023-04-01T03:20:57;1.13;;;0.60;;
70467;SDS011;57934;51.532;7.684;2023-04-01T03:23:37;1.02;;;0.60;;
70467;SDS011;57934;51.532;7.684;2023-04-01T03:26:03;1.20;;;0.40;;
70467;SDS011;57934;51.532;7.684;2023-04-01T03:28:29;1.55;;;0.52;;
70467;SDS011;57934;51.532;7.684;2023-04-01T03:30:55;0.30;;;0.30;;
70467;SDS011;57934;51.532;7.684;2023-04-01T03:33:21;0.40;;;0.40;;
70467;SDS011;57934;51.532;7.684;2023-04-01T03:35:48;0.45;;;0.32;;
70467;SDS011;57934;51.532;7.684;2023-04-01T03:38:18;0.60;;;0.40;;
70467;SDS011;57934;51.532;7.684;2023-04-01T03:40:44;3.00;;;0.50;;
70467;SDS011;57934;51.532;7.684;2023-04-01T03:43:11;2.08;;;0.50;;
70467;SDS011;57934;51.532;7.684;2023-04-01T03:45:44;0.75;;;0.60;;
70467;SDS011;57934;51.532;7.684;2023-04-01T03:48:13;2.67;;;0.40;;
70467;SDS011;57934;51.532;7.684;2023-04-01T03:50:40;0.80;;;0.40;;
70467;SDS011;57934;51.532;7.684;2023-04-01T03:53:06;0.90;;;0.50;;
70467;SDS011;57934;51.532;7.684;2023-04-01T03:55:35;1.25;;;0.40;;
70467;SDS011;57934;51.532;7.684;2023-04-01T03:58:02;1.45;;;0.40;;
70467;SDS011;57934;51.532;7.684;2023-04-01T04:00:29;0.30;;;0.30;;
70467;SDS011;57934;51.532;7.684;2023-04-01T04:02:56;2.05;;;0.50;;
70467;SDS011;57934;51.532;7.684;2023-04-01T04:05:28;1.67;;;0.57;;
70467;SDS011;57934;51.532;7.684;2023-04-01T04:07:55;2.08;;;0.43;;
70467;SDS011;57934;51.532;7.684;2023-04-01T04:10:21;0.80;;;0.40;;
70467;SDS011;57934;51.532;7.684;2023-04-01T04:12:49;2.70;;;0.50;;
70467;SDS011;57934;51.532;7.684;2023-04-01T04:15:15;1.40;;;0.50;;
70467;SDS011;57934;51.532;7.684;2023-04-01T04:17:41;1.35;;;0.65;;
70467;SDS011;57934;51.532;7.684;2023-04-01T04:20:08;0.32;;;0.32;;
70467;SDS011;57934;51.532;7.684;2023-04-01T04:22:34;1.75;;;0.40;;
70467;SDS011;57934;51.532;7.684;2023-04-01T04:25:03;1.25;;;0.50;;
70467;SDS011;57934;51.532;7.684;2023-04-01T04:27:30;0.90;;;0.60;;
70467;SDS011;57934;51.532;7.684;2023-04-01T04:30:06;0.68;;;0.52;;
70467;SDS011;57934;51.532;7.684;2023-04-01T04:32:34;0.52;;;0.50;;
70467;SDS011;57934;51.532;7.684;2023-04-01T04:35:00;1.65;;;0.57;;
70467;SDS011;57934;51.532;7.684;2023-04-01T04:37:26;0.60;;;0.50;;
70467;SDS011;57934;51.532;7.684;2023-04-01T04:39:52;0.93;;;0.70;;
70467;SDS011;57934;51.532;7.684;2023-04-01T04:42:20;2.80;;;0.70;;
70467;SDS011;57934;51.532;7.684;2023-04-01T04:44:46;1.85;;;0.70;;
70467;SDS011;57934;51.532;7.684;2023-04-01T04:47:12;1.92;;;0.90;;
70467;SDS011;57934;51.532;7.684;2023-04-01T04:49:38;2.47;;;0.80;;
70467;SDS011;57934;51.532;7.684;2023-04-01T04:52:08;3.72;;;1.17;;
70467;SDS011;57934;51.532;7.684;2023-04-01T04:54:34;1.17;;;0.70;;
70467;SDS011;57934;51.532;7.684;2023-04-01T04:57:01;0.93;;;0.90;;
70467;SDS011;57934;51.532;7.684;2023-04-01T04:59:32;1.55;;;0.98;;
70467;SDS011;57934;51.532;7.684;2023-04-01T05:02:03;1.83;;;0.98;;
70467;SDS011;57934;51.532;7.684;2023-04-01T05:04:29;0.65;;;0.65;;
70467;SDS011;57934;51.532;7.684;2023-04-01T05:07:00;1.90;;;1.13;;
70467;SDS011;57934;51.532;7.684;2023-04-01T05:09:26;0.90;;;0.90;;
70467;SDS011;57934;51.532;7.684;2023-04-01T05:11:52;1.65;;;1.00;;
70467;SDS011;57934;51.532;7.684;2023-04-01T05:14:19;1.10;;;1.00;;
70467;SDS011;57934;51.532;7.684;2023-04-01T05:16:54;1.00;;;1.00;;
70467;SDS011;57934;51.532;7.684;2023-04-01T05:19:20;1.00;;;1.00;;
70467;SDS011;57934;51.532;7.684;2023-04-01T05:21:47;1.08;;;0.98;;
70467;SDS011;57934;51.532;7.684;2023-04-01T05:24:13;1.10;;;1.10;;
70467;SDS011;57934;51.532;7.684;2023-04-01T05:26:39;1.30;;;1.20;;
70467;SDS011;57934;51.532;7.684;2023-04-01T05:29:05;1.10;;;1.00;;
70467;SDS011;57934;51.532;7.684;2023-04-01T05:31:32;1.27;;;1.17;;
70467;SDS011;57934;51.532;7.684;2023-04-01T05:33:58;1.95;;;1.10;;
70467;SDS011;57934;51.532;7.684;2023-04-01T05:36:24;1.00;;;1.00;;
70467;SDS011;57934;51.532;7.684;2023-04-01T05:38:51;1.95;;;1.10;;
70467;SDS011;57934;51.532;7.684;2023-04-01T05:41:21;2.55;;;1.10;;
70467;SDS011;57934;51.532;7.684;2023-04-01T05:43:47;1.40;;;1.10;;
70467;SDS011;57934;51.532;7.684;2023-04-01T05:46:52;4.07;;;1.10;;
70467;SDS011;57934;51.532;7.684;2023-04-01T05:49:21;0.95;;;0.90;;
70467;SDS011;57934;51.532;7.684;2023-04-01T05:51:48;2.08;;;1.23;;
70467;SDS011;57934;51.532;7.684;2023-04-01T05:54:15;2.20;;;1.17;;
70467;SDS011;57934;51.532;7.684;2023-04-01T05:56:41;1.85;;;1.27;;
70467;SDS011;57934;51.532;7.684;2023-04-01T05:59:09;1.48;;;1.33;;
70467;SDS011;57934;51.532;7.684;2023-04-01T06:01:37;2.65;;;1.48;;
70467;SDS011;57934;51.532;7.684;2023-04-01T06:04:03;3.17;;;1.67;;
70467;SDS011;57934;51.532;7.684;2023-04-01T06:06:30;1.67;;;1.50;;
70467;SDS011;57934;51.532;7.684;2023-04-01T06:09:12;1.63;;;1.52;;
70467;SDS011;57934;51.532;7.684;2023-04-01T06:18:03;1.50;;;1.40;;
70467;SDS011;57934;51.532;7.684;2023-04-01T06:23:17;1.60;;;1.50;;
70467;SDS011;57934;51.532;7.684;2023-04-01T06:34:53;1.50;;;1.25;;
70467;SDS011;57934;51.532;7.684;2023-04-01T06:45:56;5.35;;;1.20;;
70467;SDS011;57934;51.532;7.684;2023-04-01T06:52:09;1.17;;;1.17;;
70467;SDS011;57934;51.532;7.684;2023-04-01T06:55:33;2.35;;;1.20;;
70467;SDS011;57934;51.532;7.684;2023-04-01T06:58:23;2.85;;;1.15;;
70467;SDS011;57934;51.532;7.684;2023-04-01T07:00:59;0.80;;;0.80;;
70467;SDS011;57934;51.532;7.684;2023-04-01T07:03:33;1.35;;;1.00;;
70467;SDS011;57934;51.532;7.684;2023-04-01T07:06:05;1.65;;;0.90;;
70467;SDS011;57934;51.532;7.684;2023-04-01T07:08:40;1.33;;;1.05;;
70467;SDS011;57934;51.532;7.684;2023-04-01T07:11:10;1.48;;;1.02;;
70467;SDS011;57934;51.532;7.684;2023-04-01T07:14:02;1.20;;;1.10;;
70467;SDS011;57934;51.532;7.684;2023-04-01T07:16:41;2.90;;;1.20;;
70467;SDS011;57934;51.532;7.684;2023-04-01T07:19:29;1.40;;;1.30;;
70467;SDS011;57934;51.532;7.684;2023-04-01T07:22:05;0.80;;;0.80;;
70467;SDS011;57934;51.532;7.684;2023-04-01T07:25:03;1.48;;;1.10;;
70467;SDS011;57934;51.532;7.684;2023-04-01T07:27:36;1.00;;;0.90;;
70467;SDS011;57934;51.532;7.684;2023-04-01T07:30:04;1.42;;;0.80;;
70467;SDS011;57934;51.532;7.684;2023-04-01T07:32:42;1.25;;;1.15;;
70467;SDS011;57934;51.532;7.684;2023-04-01T07:40:42;1.40;;;0.90;;
70467;SDS011;57934;51.532;7.684;2023-04-01T07:49:03;1.70;;;1.30;;
70467;SDS011;57934;51.532;7.684;2023-04-01T07:51:40;0.90;;;0.90;;
70467;SDS011;57934;51.532;7.684;2023-04-01T07:54:18;1.17;;;1.00;;
70467;SDS011;57934;51.532;7.684;2023-04-01T07:59:57;0.80;;;0.70;;
70467;SDS011;57934;51.532;7.684;2023-04-01T08:05:29;0.85;;;0.82;;
70467;SDS011;57934;51.532;7.684;2023-04-01T08:11:09;1.00;;;1.00;;
70467;SDS011;57934;51.532;7.684;2023-04-01T08:14:08;1.20;;;1.20;;
70467;SDS011;57934;51.532;7.684;2023-04-01T08:22:33;3.38;;;1.30;;
70467;SDS011;57934;51.532;7.684;2023-04-01T08:25:30;1.60;;;1.50;;
70467;SDS011;57934;51.532;7.684;2023-04-01T08:31:02;1.70;;;1.60;;
70467;SDS011;57934;51.532;7.684;2023-04-01T08:33:33;2.17;;;1.40;;
70467;SDS011;57934;51.532;7.684;2023-04-01T08:36:12;2.30;;;1.33;;
70467;SDS011;57934;51.532;7.684;2023-04-01T08:38:51;1.42;;;1.15;;
70467;SDS011;57934;51.532;7.684;2023-04-01T08:46:57;1.20;;;1.10;;
70467;SDS011;57934;51.532;7.684;2023-04-01T08:56:17;2.15;;;1.45;;
70467;SDS011;57934;51.532;7.684;2023-04-01T09:01:39;1.80;;;1.60;;
70467;SDS011;57934;51.532;7.684;2023-04-01T09:04:32;1.35;;;1.23;;
70467;SDS011;57934;51.532;7.684;2023-04-01T09:10:49;3.58;;;1.10;;
70467;SDS011;57934;51.532;7.684;2023-04-01T09:27:27;3.20;;;1.20;;
70467;SDS011;57934;51.532;7.684;2023-04-01T09:35:50;1.60;;;1.10;;
70467;SDS011;57934;51.532;7.684;2023-04-01T09:38:26;2.25;;;1.10;;
70467;SDS011;57934;51.532;7.684;2023-04-01T09:43:48;1.50;;;1.30;;
70467;SDS011;57934;51.532;7.684;2023-04-01T09:46:24;1.27;;;1.17;;
70467;SDS011;57934;51.532;7.684;2023-04-01T09:54:30;2.05;;;1.40;;
70467;SDS011;57934;51.532;7.684;2023-04-01T09:57:29;2.15;;;1.25;;
70467;SDS011;57934;51.532;7.684;2023-04-01T10:03:13;2.15;;;1.80;;
70467;SDS011;57934;51.532;7.684;2023-04-01T10:14:37;2.10;;;2.00;;
70467;SDS011;57934;51.532;7.684;2023-04-01T10:20:49;1.80;;;1.70;;
70467;SDS011;57934;51.532;7.684;2023-04-01T10:31:57;3.13;;;2.83;;
70467;SDS011;57934;51.532;7.684;2023-04-01T10:37:52;4.15;;;3.30;;
70467;SDS011;57934;51.532;7.684;2023-04-01T10:55:19;4.22;;;3.90;;
70467;SDS011;57934;51.532;7.684;2023-04-01T11:04:58;4.90;;;4.38;;
70467;SDS011;57934;51.532;7.684;2023-04-01T11:20:50;4.88;;;4.15;;
70467;SDS011;57934;51.532;7.684;2023-04-01T11:43:28;5.28;;;3.80;;
70467;SDS011;57934;51.532;7.684;2023-04-01T11:46:23;3.63;;;3.33;;
70467;SDS011;57934;51.532;7.684;2023-04-01T12:05:38;3.97;;;3.67;;
70467;SDS011;57934;51.532;7.684;2023-04-01T12:13:53;4.10;;;3.72;;
70467;SDS011;57934;51.532;7.684;2023-04-01T12:19:21;4.32;;;3.28;;
70467;SDS011;57934;51.532;7.684;2023-04-01T12:25:22;3.33;;;3.10;;
70467;SDS011;57934;51.532;7.684;2023-04-01T12:28:01;2.83;;;2.63;;
70467;SDS011;57934;51.532;7.684;2023-04-01T12:31:02;3.38;;;3.08;;
70467;SDS011;57934;51.532;7.684;2023-04-01T12:48:15;4.78;;;4.10;;
70467;SDS011;57934;51.532;7.684;2023-04-01T12:54:11;4.07;;;3.67;;
70467;SDS011;57934;51.532;7.684;2023-04-01T13:07:24;4.55;;;3.25;;
70467;SDS011;57934;51.532;7.684;2023-04-01T13:09:56;3.47;;;3.17;;
70467;SDS011;57934;51.532;7.684;2023-04-01T13:17:53;3.67;;;2.78;;
70467;SDS011;57934;51.532;7.684;2023-04-01T13:23:30;8.90;;;3.13;;
70467;SDS011;57934;51.532;7.684;2023-04-01T13:26:41;3.60;;;3.30;;
70467;SDS011;57934;51.532;7.684;2023-04-01T13:31:55;5.10;;;4.60;;
70467;SDS011;57934;51.532;7.684;2023-04-01T13:42:49;6.93;;;6.18;;
70467;SDS011;57934;51.532;7.684;2023-04-01T13:45:24;8.02;;;5.85;;
70467;SDS011;57934;51.532;7.684;2023-04-01T13:50:55;9.23;;;6.38;;
70467;SDS011;57934;51.532;7.684;2023-04-01T13:53:40;6.95;;;6.22;;
70467;SDS011;57934;51.532;7.684;2023-04-01T14:07:22;9.95;;;7.68;;
70467;SDS011;57934;51.532;7.684;2023-04-01T14:10:06;9.60;;;8.60;;
70467;SDS011;57934;51.532;7.684;2023-04-01T14:15:23;20.42;;;15.43;;
70467;SDS011;57934;51.532;7.684;2023-04-01T14:24:19;11.18;;;9.57;;
70467;SDS011;57934;51.532;7.684;2023-04-01T14:30:15;10.05;;;8.60;;
70467;SDS011;57934;51.532;7.684;2023-04-01T14:39:11;9.20;;;8.30;;
70467;SDS011;57934;51.532;7.684;2023-04-01T14:42:11;11.38;;;7.55;;
70467;SDS011;57934;51.532;7.684;2023-04-01T14:50:25;6.95;;;6.25;;
70467;SDS011;57934;51.532;7.684;2023-04-01T15:00:54;7.70;;;6.90;;
70467;SDS011;57934;51.532;7.684;2023-04-01T15:03:39;7.03;;;6.40;;
70467;SDS011;57934;51.532;7.684;2023-04-01T15:09:14;7.25;;;5.32;;
70467;SDS011;57934;51.532;7.684;2023-04-01T15:35:33;5.38;;;4.40;;
70467;SDS011;57934;51.532;7.684;2023-04-01T15:44:26;6.05;;;5.10;;
70467;SDS011;57934;51.532;7.684;2023-04-01T15:46:54;5.65;;;5.15;;
70467;SDS011;57934;51.532;7.684;2023-04-01T15:52:05;5.97;;;5.35;;
70467;SDS011;57934;51.532;7.684;2023-04-01T16:00:21;8.05;;;7.25;;
70467;SDS011;57934;51.532;7.684;2023-04-01T16:23:50;16.40;;;12.65;;
70467;SDS011;57934;51.532;7.684;2023-04-01T16:26:23;17.33;;;13.77;;
70467;SDS011;57934;51.532;7.684;2023-04-01T16:28:56;19.40;;;14.32;;
70467;SDS011;57934;51.532;7.684;2023-04-01T16:31:34;18.42;;;15.75;;
70467;SDS011;57934;51.532;7.684;2023-04-01T16:34:27;17.92;;;14.38;;
70467;SDS011;57934;51.532;7.684;2023-04-01T16:37:07;18.33;;;14.43;;
70467;SDS011;57934;51.532;7.684;2023-04-01T16:47:49;22.30;;;17.60;;
70467;SDS011;57934;51.532;7.684;2023-04-01T16:53:17;22.05;;;17.27;;
70467;SDS011;57934;51.532;7.684;2023-04-01T16:58:34;24.52;;;16.63;;
70467;SDS011;57934;51.532;7.684;2023-04-01T17:01:06;21.42;;;16.30;;
70467;SDS011;57934;51.532;7.684;2023-04-01T17:03:36;20.50;;;15.85;;
70467;SDS011;57934;51.532;7.684;2023-04-01T17:11:24;18.08;;;14.35;;
70467;SDS011;57934;51.532;7.684;2023-04-01T17:19:14;17.02;;;13.65;;
70467;SDS011;57934;51.532;7.684;2023-04-01T17:38:47;16.05;;;13.20;;
70467;SDS011;57934;51.532;7.684;2023-04-01T17:57:52;17.40;;;13.05;;
70467;SDS011;57934;51.532;7.684;2023-04-01T18:00:48;18.40;;;13.60;;
70467;SDS011;57934;51.532;7.684;2023-04-01T18:03:38;15.88;;;13.48;;
70467;SDS011;57934;51.532;7.684;2023-04-01T18:06:26;17.42;;;12.60;;
70467;SDS011;57934;51.532;7.684;2023-04-01T18:14:23;15.80;;;12.30;;
70467;SDS011;57934;51.532;7.684;2023-04-01T18:17:21;14.95;;;11.75;;
70467;SDS011;57934;51.532;7.684;2023-04-01T18:23:47;17.85;;;12.50;;
70467;SDS011;57934;51.532;7.684;2023-04-01T18:26:22;14.52;;;11.55;;
70467;SDS011;57934;51.532;7.684;2023-04-01T18:29:35;14.35;;;11.38;;
70467;SDS011;57934;51.532;7.684;2023-04-01T18:31:48;15.77;;;12.25;;
70467;SDS011;57934;51.532;7.684;2023-04-01T18:39:58;13.90;;;12.00;;
70467;SDS011;57934;51.532;7.684;2023-04-01T18:42:50;16.95;;;12.32;;
70467;SDS011;57934;51.532;7.684;2023-04-01T18:48:06;18.55;;;13.68;;
70467;SDS011;57934;51.532;7.684;2023-04-01T18:56:06;21.83;;;16.48;;
70467;SDS011;57934;51.532;7.684;2023-04-01T18:58:45;22.05;;;15.73;;
70467;SDS011;57934;51.532;7.684;2023-04-01T19:01:19;20.73;;;15.82;;
70467;SDS011;57934;51.532;7.684;2023-04-01T19:09:18;21.75;;;16.13;;
70467;SDS011;57934;51.532;7.684;2023-04-01T19:22:55;21.63;;;15.30;;
70467;SDS011;57934;51.532;7.684;2023-04-01T19:28:20;20.50;;;15.32;;
70467;SDS011;57934;51.532;7.684;2023-04-01T19:30:55;25.02;;;16.23;;
70467;SDS011;57934;51.532;7.684;2023-04-01T19:33:30;23.17;;;17.08;;
70467;SDS011;57934;51.532;7.684;2023-04-01T19:38:40;23.75;;;17.25;;
70467;SDS011;57934;51.532;7.684;2023-04-01T19:47:09;28.83;;;19.67;;
70467;SDS011;57934;51.532;7.684;2023-04-01T19:49:51;28.70;;;19.38;;
70467;SDS011;57934;51.532;7.684;2023-04-01T19:52:26;31.67;;;20.10;;
70467;SDS011;57934;51.532;7.684;2023-04-01T20:00:24;29.83;;;20.55;;
70467;SDS011;57934;51.532;7.684;2023-04-01T20:03:15;23.98;;;17.33;;
70467;SDS011;57934;51.532;7.684;2023-04-01T20:11:14;26.88;;;16.98;;
70467;SDS011;57934;51.532;7.684;2023-04-01T20:16:50;27.40;;;18.23;;
70467;SDS011;57934;51.532;7.684;2023-04-01T20:22:38;29.50;;;20.75;;
70467;SDS011;57934;51.532;7.684;2023-04-01T20:27:56;26.77;;;19.35;;
70467;SDS011;57934;51.532;7.684;2023-04-01T20:30:34;27.50;;;18.88;;
70467;SDS011;57934;51.532;7.684;2023-04-01T20:38:58;17.50;;;12.32;;
70467;SDS011;57934;51.532;7.684;2023-04-01T20:47:41;5.20;;;4.63;;
70467;SDS011;57934;51.532;7.684;2023-04-01T20:53:51;6.70;;;6.00;;
70467;SDS011;57934;51.532;7.684;2023-04-01T21:13:41;7.07;;;5.65;;
70467;SDS011;57934;51.532;7.684;2023-04-01T21:25:03;7.40;;;5.60;;
70467;SDS011;57934;51.532;7.684;2023-04-01T21:27:46;8.90;;;6.00;;
70467;SDS011;57934;51.532;7.684;2023-04-01T21:38:28;6.35;;;5.72;;
70467;SDS011;57934;51.532;7.684;2023-04-01T21:41:29;6.65;;;6.03;;
70467;SDS011;57934;51.532;7.684;2023-04-01T21:50:25;6.53;;;4.47;;
70467;SDS011;57934;51.532;7.684;2023-04-01T21:53:18;5.22;;;4.72;;
70467;SDS011;57934;51.532;7.684;2023-04-01T22:10:03;5.57;;;5.07;;
70467;SDS011;57934;51.532;7.684;2023-04-01T22:15:18;5.95;;;4.80;;
70467;SDS011;57934;51.532;7.684;2023-04-01T22:17:51;5.70;;;5.13;;
70467;SDS011;57934;51.532;7.684;2023-04-01T22:20:28;5.10;;;4.70;;
70467;SDS011;57934;51.532;7.684;2023-04-01T22:25:25;4.72;;;4.32;;
70467;SDS011;57934;51.532;7.684;2023-04-01T22:28:09;5.88;;;5.05;;
70467;SDS011;57934;51.532;7.684;2023-04-01T22:31:01;5.55;;;4.70;;
70467;SDS011;57934;51.532;7.684;2023-04-01T22:44:03;5.45;;;4.90;;
70467;SDS011;57934;51.532;7.684;2023-04-01T22:49:06;5.00;;;4.50;;
70467;SDS011;57934;51.532;7.684;2023-04-01T22:51:54;5.28;;;4.65;;
70467;SDS011;57934;51.532;7.684;2023-04-01T22:54:29;5.65;;;4.97;;
70467;SDS011;57934;51.532;7.684;2023-04-01T22:57:03;5.15;;;4.68;;
70467;SDS011;57934;51.532;7.684;2023-04-01T23:02:11;6.18;;;5.25;;
70467;SDS011;57934;51.532;7.684;2023-04-01T23:04:45;5.30;;;4.80;;
70467;SDS011;57934;51.532;7.684;2023-04-01T23:07:27;5.82;;;5.32;;
70467;SDS011;57934;51.532;7.684;2023-04-01T23:10:03;5.57;;;5.07;;
70467;SDS011;57934;51.532;7.684;2023-04-01T23:12:37;5.30;;;4.80;;
70467;SDS011;57934;51.532;7.684;2023-04-01T23:15:08;5.13;;;4.72;;
70467;SDS011;57934;51.532;7.684;2023-04-01T23:17:42;5.47;;;4.97;;
70467;SDS011;57934;51.532;7.684;2023-04-01T23:26:01;5.63;;;4.97;;
70467;SDS011;57934;51.532;7.684;2023-04-01T23:28:51;5.72;;;5.13;;
70467;SDS011;57934;51.532;7.684;2023-04-01T23:34:02;5.20;;;4.70;;
70467;SDS011;57934;51.532;7.684;2023-04-01T23:36:49;5.60;;;5.10;;
70467;SDS011;57934;51.532;7.684;2023-04-01T23:39:26;5.25;;;4.75;;
70467;SDS011;57934;51.532;7.684;2023-04-01T23:41:58;5.30;;;4.75;;
70467;SDS011;57934;51.532;7.684;2023-04-01T23:44:27;4.95;;;4.32;;
70467;SDS011;57934;51.532;7.684;2023-04-01T23:46:55;5.00;;;4.60;;
70467;SDS011;57934;51.532;7.684;2023-04-01T23:49:39;5.25;;;4.75;;
70467;SDS011;57934;51.532;7.684;2023-04-01T23:52:10;5.93;;;4.97;;
70467;SDS011;57934;51.532;7.684;2023-04-01T23:57:32;4.93;;;4.53;;
